Latest Weather Observations for Richmond

IDQ60801

Issued at 2:32 pm EST Tuesday 3 March 2015 (issued every 30 minutes, with the page automatically refreshed every 10 minutes)

About weather observations | Map of weather stations | Latest weather observations for QLD | Other Formats
Station Details ID: 030161 Name: RICHMOND AIRPORT Lat: -20.70 Lon: 143.12 Height: 206.3 m
Data from the previous 72 hours. | See also: Recent months at Richmond
Date/Time
EST
Temp
°C
App
Temp
°C
Dew
Point
Rel
Hum
%
Delta-T
°C
Wind Press
QNH
hPa
Press
MSL
hPa
Rain
since 9 am
mm
Dir
 
Spd
km/h
Gust
km/h
Spd
kts
Gust
kts
03/02:30pm 35.7 36.8 17.9 35 11.7 SE 9 19 5 10 1008.8 1007.4 0.0
03/02:00pm 35.3 35.8 16.6 33 12.0 ESE 9 19 5 10 1009.3 1008.0 0.0
03/01:30pm 35.3 35.6 15.1 30 12.7 ENE 7 15 4 8 1010.0 1008.6 0.0
03/01:00pm 34.8 35.3 16.6 33 11.7 NNE 9 15 5 8 1010.6 1009.2 0.0
03/12:30pm 35.1 34.4 17.3 34 11.5 ESE 17 22 9 12 1011.1 1009.7 0.0
03/12:00pm 33.8 33.6 16.6 35 11.0 E 13 20 7 11 1011.5 1010.1 0.0
03/11:30am 32.8 34.0 17.4 39 9.9 N 7 17 4 9 1012.1 1010.7 0.0
03/11:00am 32.6 34.1 18.8 44 9.1 NE 9 13 5 7 1012.4 1011.0 0.0
03/10:30am 31.2 33.9 20.2 52 7.3 E 6 15 3 8 1012.7 1011.3 0.0
03/10:00am 30.8 33.3 21.0 56 6.6 ESE 9 17 5 9 1012.6 1011.2 0.0
03/09:30am 29.6 31.6 20.7 58 5.9 SE 11 15 6 8 1012.6 1011.2 0.0
03/09:00am 29.0 31.6 21.2 62 5.2 ESE 9 11 5 6 1012.3 1010.9 0.0
03/08:30am 28.3 31.5 21.6 67 4.5 SSE 7 9 4 5 1011.9 1010.5 0.0
03/08:00am 27.7 31.5 21.7 70 4.0 ENE 4 6 2 3 1011.6 1010.2 0.0
03/07:30am 27.4 32.2 22.1 73 3.6 CALM 0 6 0 3 1011.3 1009.9 0.0
03/07:00am 27.0 29.9 21.7 73 3.6 NE 9 11 5 6 1010.8 1009.4 0.0
03/06:30am 26.5 30.5 22.1 77 3.0 NNE 4 7 2 4 1010.4 1009.0 0.0
03/06:00am 26.3 30.4 22.2 78 2.8 NE 4 9 2 5 1009.9 1008.5 0.0
03/05:30am 26.1 30.8 22.6 81 2.4 NE 2 6 1 3 1009.3 1008.0 0.0
03/05:00am 25.5 30.4 22.4 83 2.1 CALM 0 0 0 0 1008.6 1007.2 0.0
03/04:30am 25.6 29.3 22.3 82 2.2 NNE 6 7 3 4 1008.4 1007.0 0.0
03/04:00am 25.8 29.0 22.3 81 2.4 NE 9 11 5 6 1008.2 1006.8 0.0
03/03:30am 26.1 28.6 22.4 80 2.5 NE 13 19 7 10 1007.9 1006.5 0.0
03/03:00am 26.0 28.1 22.5 81 2.4 NE 15 20 8 11 1007.7 1006.3 0.0
03/02:30am 26.2 28.5 22.7 81 2.4 NNE 15 17 8 9 1007.9 1006.5 0.0
03/02:00am 26.6 28.9 22.7 79 2.7 NNE 15 19 8 10 1008.0 1006.6 0.0
03/01:30am 26.8 29.0 22.6 78 2.9 NE 15 20 8 11 1008.3 1006.9 0.0
03/01:00am 26.8 28.7 22.8 79 2.7 NE 17 30 9 16 1008.3 1006.9 0.0
03/12:30am 26.8 30.0 23.1 80 2.5 NNE 11 15 6 8 1007.9 1006.5 0.0
 
Date/Time
EST
Temp
°C
App
Temp
°C
Dew
Point
Rel
Hum
%
Delta-T
°C
Wind Press
QNH
hPa
Press
MSL
hPa
Rain
since 9 am
mm
Dir
 
Spd
km/h
Gust
km/h
Spd
kts
Gust
kts
02/11:30pm 27.3 30.3 22.7 76 3.1 W 11 13 6 7 1007.8 1006.4 0.0
02/11:00pm 27.9 31.1 22.4 72 3.8 WSW 9 13 5 7 1007.8 1006.4 0.0
02/10:30pm 28.2 30.6 22.2 70 4.1 W 13 13 7 7 1007.6 1006.2 0.0
02/10:00pm 28.5 31.8 21.8 67 4.5 WNW 7 13 4 7 1008.0 1006.6 0.0
02/09:30pm 28.9 29.9 22.2 67 4.6 NNE 20 28 11 15 1008.3 1006.9 0.0
02/09:00pm 30.2 31.5 22.4 63 5.3 NE 19 26 10 14 1008.0 1006.6 0.0
02/08:30pm 29.7 33.2 22.9 67 4.7 NE 9 11 5 6 1007.8 1006.4 0.0
02/08:00pm 30.7 34.1 22.0 59 5.9 SSE 7 9 4 5 1007.0 1005.6 0.0
02/07:30pm 30.3 32.3 22.2 62 5.5 SSE 15 32 8 17 1006.2 1004.8 0.0
02/07:00pm 29.4 33.6 22.4 66 4.8 WNW 4 11 2 6 1006.2 1004.8 0.0
02/06:30pm 29.5 33.0 22.2 65 5.0 W 7 11 4 6 1006.2 1004.8 0.0
02/06:00pm 30.1 33.2 21.5 60 5.8 WNW 7 9 4 5 1006.0 1004.6 0.0
02/05:30pm 30.2 32.4 21.8 60 5.7 WNW 13 24 7 13 1004.9 1003.5 0.0
02/05:00pm 31.5 34.4 21.7 56 6.7 N 9 17 5 9 1005.1 1003.7 0.0
02/04:30pm 29.5 30.2 22.2 65 5.0 NNW 22 30 12 16 1005.1 1003.7 0.0
02/04:00pm 29.3 29.8 23.3 70 4.2 NE 26 35 14 19 1005.3 1003.9 0.0
02/03:54pm 29.7 29.6 21.4 61 5.6 ENE 24 35 13 19 1005.2 1003.8 0.0
02/03:33pm 34.9 35.8 20.1 42 10.0 SE 15 37 8 20 1005.3 1003.9 0.0
02/03:30pm 36.4 37.7 18.5 35 11.8 SE 9 15 5 8 1005.1 1003.7 0.0
02/03:00pm 38.2 40.8 20.0 34 12.4 WNW 6 13 3 7 1005.0 1003.6 0.0
02/02:30pm 35.8 36.9 19.7 39 10.8 SW 13 19 7 10 1005.3 1003.9 0.0
02/02:00pm 36.7 39.1 20.1 38 11.2 SW 7 15 4 8 1005.7 1004.3 0.0
02/01:30pm 36.7 39.1 20.9 39 10.8 SW 9 17 5 9 1006.3 1004.9 0.0
02/01:00pm 36.5 40.0 21.9 42 10.1 SSE 6 15 3 8 1006.9 1005.5 0.0
02/12:30pm 35.6 38.7 21.5 44 9.7 WNW 7 17 4 9 1007.4 1006.0 0.0
02/12:00pm 35.0 37.4 20.9 43 9.6 SW 9 15 5 8 1007.9 1006.5 0.0
02/11:30am 34.4 37.1 22.1 48 8.5 WNW 11 20 6 11 1008.3 1006.9 0.0
02/11:00am 33.3 36.4 22.1 52 7.7 NNW 9 19 5 10 1008.7 1007.3 0.0
02/10:30am 32.4 35.0 21.9 54 7.2 NW 11 17 6 9 1009.0 1007.6 0.0
02/10:00am 32.9 36.1 23.0 56 6.9 NNW 11 17 6 9 1009.3 1008.0 0.0
02/09:30am 30.6 33.8 23.0 64 5.2 NNW 11 15 6 8 1009.5 1008.1 0.0
02/09:00am 30.6 32.9 23.5 66 4.9 NW 17 22 9 12 1009.1 1007.8 0.0
02/08:30am 29.9 32.8 23.1 67 4.7 NNW 13 20 7 11 1008.9 1007.5 0.0
02/08:00am 29.4 32.0 23.3 69 4.2 NW 15 20 8 11 1008.3 1006.9 0.0
02/07:30am 28.6 31.4 23.7 75 3.4 NNW 15 17 8 9 1008.0 1006.6 0.0
02/07:00am 27.3 30.7 24.0 82 2.3 N 13 15 7 8 1007.8 1006.4 0.0
02/06:30am 26.4 29.6 23.7 85 1.9 NNE 13 17 7 9 1007.8 1006.4 0.0
02/06:00am 25.5 29.7 23.2 87 1.6 NE 6 7 3 4 1007.1 1005.7 0.0
02/05:30am 26.0 30.5 23.7 87 1.6 ENE 6 7 3 4 1007.1 1005.7 0.0
02/05:00am 26.1 31.8 23.8 87 1.6 CALM 0 0 0 0 1006.7 1005.3 0.0
02/04:30am 26.2 32.0 23.9 87 1.6 CALM 0 0 0 0 1006.5 1005.1 0.0
02/04:00am 26.5 32.1 23.6 84 2.0 CALM 0 0 0 0 1006.5 1005.1 0.0
02/03:30am 26.7 31.8 23.4 82 2.3 NE 2 6 1 3 1006.3 1004.9 0.0
02/03:00am 26.5 31.1 23.2 82 2.3 NNW 4 7 2 4 1006.3 1004.9 0.0
02/02:30am 26.4 31.1 23.3 83 2.1 SW 4 6 2 3 1006.6 1005.2 0.0
02/02:00am 26.4 32.0 23.5 84 2.0 CALM 0 0 0 0 1006.9 1005.5 0.0
02/01:30am 26.4 31.3 23.1 82 2.3 WSW 2 7 1 4 1006.8 1005.4 0.0
02/01:00am 26.7 30.8 23.2 81 2.4 W 7 9 4 5 1006.5 1005.1 0.0
02/12:30am 27.4 30.9 22.8 76 3.1 N 9 13 5 7 1006.5 1005.1 0.0
02/12:00am 27.5 29.4 22.7 75 3.3 N 17 20 9 11 1006.7 1005.3 0.0
 
Date/Time
EST
Temp
°C
App
Temp
°C
Dew
Point
Rel
Hum
%
Delta-T
°C
Wind Press
QNH
hPa
Press
MSL
hPa
Rain
since 9 am
mm
Dir
 
Spd
km/h
Gust
km/h
Spd
kts
Gust
kts
01/11:30pm 27.4 29.8 22.3 73 3.5 NNE 13 19 7 10 1007.2 1005.8 0.0
01/11:00pm 27.5 29.9 22.2 73 3.6 NNE 13 19 7 10 1007.5 1006.1 0.0
01/10:30pm 27.9 29.8 21.4 67 4.4 NNE 13 19 7 10 1007.7 1006.3 0.0
01/10:00pm 28.3 30.6 21.3 65 4.7 NNE 11 19 6 10 1008.0 1006.6 0.0
01/09:30pm 28.1 30.0 21.4 67 4.5 N 13 19 7 10 1007.8 1006.4 0.0
01/09:00pm 28.1 29.7 22.1 70 4.1 NW 17 24 9 13 1007.5 1006.1 0.0
01/08:30pm 28.5 29.4 21.5 66 4.7 N 19 30 10 16 1006.9 1005.5 0.0
01/08:00pm 26.7 28.2 23.0 80 2.5 N 20 26 11 14 1006.2 1004.8 0.0
01/07:30pm 26.6 29.6 23.3 82 2.3 WSW 13 20 7 11 1007.2 1005.8 0.0
01/07:00pm 28.4 30.5 21.7 67 4.5 E 13 22 7 12 1007.9 1006.5 0.0
01/06:32pm 29.3 27.6 21.3 62 5.4 NE 32 50 17 27 1006.5 1005.1 0.0
01/06:30pm 29.5 27.3 21.4 61 5.5 NE 35 50 19 27 1006.3 1004.9 0.0
01/06:17pm 32.4 30.6 19.6 46 8.5 NNE 28 46 15 25 1005.0 1003.6 0.0
01/06:00pm 32.9 32.0 19.0 43 9.2 NNE 22 35 12 19 1004.8 1003.3 0.0
01/05:30pm 36.8 37.0 20.6 39 11.0 NNW 20 28 11 15 1003.6 1002.2 0.0
01/05:00pm 37.8 37.2 20.6 36 11.8 NW 24 32 13 17 1003.3 1001.9 0.0
01/04:30pm 37.6 36.8 20.0 36 11.9 W 24 35 13 19 1003.2 1001.8 0.0
01/04:00pm 37.9 38.4 21.1 37 11.6 W 20 32 11 17 1003.7 1002.3 0.0
01/03:30pm 36.6 35.8 20.0 38 11.2 W 24 35 13 19 1003.8 1002.4 0.0
01/03:00pm 36.5 36.2 20.3 38 11.0 WNW 22 35 12 19 1004.4 1002.9 0.0
01/02:30pm 38.1 37.7 21.7 38 11.3 NW 26 41 14 22 1004.9 1003.5 0.0
01/02:00pm 37.4 37.5 21.9 40 10.7 WNW 24 35 13 19 1005.4 1004.0 0.0
01/01:30pm 36.8 37.2 21.8 42 10.4 NW 22 35 12 19 1006.0 1004.6 0.0
01/01:00pm 35.8 36.9 22.4 46 9.3 WNW 20 33 11 18 1006.4 1005.0 0.0
01/12:30pm 35.5 35.7 22.1 45 9.3 NW 24 41 13 22 1007.0 1005.6 0.0
01/12:00pm 34.8 35.1 22.2 48 8.7 WNW 24 37 13 20 1007.4 1006.0 0.0
01/11:30am 34.2 34.9 22.3 50 8.2 NW 22 35 12 19 1007.9 1006.5 0.0
01/11:00am 34.2 34.9 22.9 51 7.9 NW 24 37 13 20 1008.3 1006.9 0.0
01/10:30am 33.5 34.7 23.2 54 7.2 NW 22 33 12 18 1008.3 1006.9 0.0
01/10:00am 32.1 32.5 22.5 57 6.6 NNW 24 33 13 18 1008.5 1007.1 0.0
01/09:30am 31.6 32.5 22.6 59 6.2 NNW 22 28 12 15 1008.5 1007.0 0.0
01/09:00am 31.0 32.1 23.1 63 5.5 NNW 22 30 12 16 1008.4 1006.9 0.0
01/08:30am 29.9 30.6 22.3 63 5.2 NNW 22 28 12 15 1008.3 1006.8 0.0
01/08:00am 28.8 29.6 21.8 66 4.7 NNW 20 32 11 17 1008.2 1006.7 0.0
01/07:30am 28.2 29.9 21.7 68 4.4 NNW 15 22 8 12 1007.8 1006.3 0.0
01/07:00am 27.4 29.0 21.4 70 4.0 NNW 15 19 8 10 1007.4 1005.9 0.0
01/06:30am 27.2 28.7 21.2 69 4.0 NNW 15 20 8 11 1007.0 1005.5 0.0
01/06:00am 27.5 28.9 21.1 68 4.3 NNW 15 22 8 12 1006.7 1005.2 0.0
01/05:30am 28.0 29.0 21.1 66 4.6 NNW 17 26 9 14 1006.4 1004.9 0.0
01/05:00am 28.1 29.3 21.4 67 4.5 NNW 17 22 9 12 1005.9 1004.4 0.0
01/04:30am 28.3 29.0 21.6 67 4.5 NNW 20 26 11 14 1005.7 1004.2 0.0
01/04:00am 28.5 29.3 21.3 65 4.8 NNW 19 28 10 15 1005.4 1003.9 0.0
01/03:30am 28.6 29.1 21.1 64 5.0 N 20 26 11 14 1005.1 1003.5 0.0
01/03:00am 28.6 29.8 21.4 65 4.9 N 17 22 9 12 1005.0 1003.4 0.0
01/02:30am 28.6 30.6 21.6 66 4.7 N 13 19 7 10 1005.1 1003.5 0.0
01/02:00am 28.7 31.2 21.7 66 4.7 NNW 11 15 6 8 1004.9 1003.3 0.0
01/01:30am 29.2 31.4 21.9 64 5.0 N 13 15 7 8 1004.9 1003.3 0.0
01/01:00am 29.7 32.1 22.2 64 5.1 N 13 17 7 9 1005.2 1003.7 0.0
01/12:30am 29.9 32.2 22.1 63 5.3 N 13 15 7 8 1005.4 1003.9 0.0
01/12:00am 30.2 32.2 21.6 60 5.8 N 13 17 7 9 1005.7 1004.2 0.0
 
Date/Time
EST
Temp
°C
App
Temp
°C
Dew
Point
Rel
Hum
%
Delta-T
°C
Wind Press
QNH
hPa
Press
MSL
hPa
Rain
since 9 am
mm
Dir
 
Spd
km/h
Gust
km/h
Spd
kts
Gust
kts
28/11:30pm 30.3 32.6 21.4 59 6.0 N 11 15 6 8 1006.1 1004.6 0.0
28/11:00pm 30.3 32.2 21.4 59 6.0 NNW 13 17 7 9 1006.3 1004.8 0.0
28/10:30pm 31.1 32.6 21.3 56 6.6 WNW 15 22 8 12 1006.2 1004.7 0.0
28/10:00pm 31.9 33.3 21.1 52 7.3 N 15 20 8 11 1005.8 1004.3 0.0
28/09:30pm 32.0 33.3 20.9 52 7.5 N 15 20 8 11 1005.5 1004.0 0.0
28/09:00pm 32.3 33.8 20.5 49 7.9 N 13 15 7 8 1005.0 1003.4 0.0
28/08:30pm 33.2 33.3 20.4 47 8.6 NNW 20 26 11 14 1004.8 1003.2 0.0
28/08:00pm 34.1 34.6 20.1 43 9.4 NNW 17 35 9 19 1004.2 1002.7 0.0
28/07:30pm 33.9 35.3 19.6 43 9.5 NNW 11 13 6 7 1003.9 1002.4 0.0
28/07:00pm 35.2 35.8 18.7 37 10.9 NNW 13 17 7 9 1003.5 1002.0 0.0
28/06:30pm 37.0 38.3 18.5 33 12.2 NW 9 17 5 9 1003.2 1001.7 0.0
28/06:00pm 37.7 37.2 17.7 31 13.2 WNW 17 22 9 12 1003.1 1001.6 0.0
28/05:30pm 37.8 37.9 18.3 32 12.9 NW 15 22 8 12 1003.1 1001.6 0.0
28/05:00pm 38.6 38.4 18.4 30 13.5 NW 17 32 9 17 1003.1 1001.6 0.0
28/04:30pm 38.8 38.1 18.6 30 13.5 WNW 20 30 11 16 1003.1 1001.6 0.0
28/04:00pm 38.2 37.1 18.6 31 13.1 WNW 22 30 12 16 1003.2 1001.7 0.0
28/03:30pm 38.0 37.4 18.4 31 13.0 WNW 19 26 10 14 1003.3 1001.8 0.0
28/03:00pm 38.1 37.3 18.5 31 13.1 W 20 32 11 17 1003.6 1002.1 0.0

Other Formats:

Comma delimited format used in spreadsheet applications
http://www.bom.gov.au/fwo/IDQ60801/IDQ60801.94341.axf

JavaScript Object Notation format (JSON) in row-major order
http://www.bom.gov.au/fwo/IDQ60801/IDQ60801.94341.json